sensor_id;sensor_type;location;lat;lon;timestamp;P1;durP1;ratioP1;P2;durP2;ratioP2
16506;SDS011;8366;51.020;7.642;2023-11-19T00:02:15;3.83;;;3.53;;
16506;SDS011;8366;51.020;7.642;2023-11-19T00:04:43;1.30;;;1.20;;
16506;SDS011;8366;51.020;7.642;2023-11-19T00:07:10;1.17;;;1.07;;
16506;SDS011;8366;51.020;7.642;2023-11-19T00:09:38;1.20;;;0.90;;
16506;SDS011;8366;51.020;7.642;2023-11-19T00:12:05;10.40;;;9.37;;
16506;SDS011;8366;51.020;7.642;2023-11-19T00:14:32;2.37;;;1.30;;
16506;SDS011;8366;51.020;7.642;2023-11-19T00:16:59;23.60;;;21.17;;
16506;SDS011;8366;51.020;7.642;2023-11-19T00:19:27;2.80;;;2.20;;
16506;SDS011;8366;51.020;7.642;2023-11-19T00:21:54;1.87;;;1.50;;
16506;SDS011;8366;51.020;7.642;2023-11-19T00:24:20;3.20;;;1.00;;
16506;SDS011;8366;51.020;7.642;2023-11-19T00:26:47;2.27;;;1.20;;
16506;SDS011;8366;51.020;7.642;2023-11-19T00:29:14;0.80;;;0.80;;
16506;SDS011;8366;51.020;7.642;2023-11-19T00:31:41;0.73;;;0.70;;
16506;SDS011;8366;51.020;7.642;2023-11-19T00:34:07;1.10;;;1.00;;
16506;SDS011;8366;51.020;7.642;2023-11-19T00:36:35;1.00;;;0.90;;
16506;SDS011;8366;51.020;7.642;2023-11-19T00:39:02;1.50;;;1.00;;
16506;SDS011;8366;51.020;7.642;2023-11-19T00:41:28;1.40;;;0.97;;
16506;SDS011;8366;51.020;7.642;2023-11-19T00:43:55;1.20;;;1.10;;
16506;SDS011;8366;51.020;7.642;2023-11-19T00:46:22;1.10;;;1.00;;
16506;SDS011;8366;51.020;7.642;2023-11-19T00:48:48;0.77;;;0.77;;
16506;SDS011;8366;51.020;7.642;2023-11-19T00:51:15;1.57;;;1.10;;
16506;SDS011;8366;51.020;7.642;2023-11-19T00:53:43;0.80;;;0.80;;
16506;SDS011;8366;51.020;7.642;2023-11-19T00:56:10;1.33;;;1.00;;
16506;SDS011;8366;51.020;7.642;2023-11-19T00:58:38;1.00;;;0.90;;
16506;SDS011;8366;51.020;7.642;2023-11-19T01:01:04;0.80;;;0.77;;
16506;SDS011;8366;51.020;7.642;2023-11-19T01:03:31;2.20;;;0.87;;
16506;SDS011;8366;51.020;7.642;2023-11-19T01:05:58;0.90;;;0.80;;
16506;SDS011;8366;51.020;7.642;2023-11-19T01:08:24;0.93;;;0.83;;
16506;SDS011;8366;51.020;7.642;2023-11-19T01:10:52;1.43;;;0.90;;
16506;SDS011;8366;51.020;7.642;2023-11-19T01:13:19;1.07;;;0.77;;
16506;SDS011;8366;51.020;7.642;2023-11-19T01:15:45;1.03;;;0.80;;
16506;SDS011;8366;51.020;7.642;2023-11-19T01:18:13;1.73;;;0.90;;
16506;SDS011;8366;51.020;7.642;2023-11-19T01:20:39;1.67;;;0.97;;
16506;SDS011;8366;51.020;7.642;2023-11-19T01:23:06;2.60;;;0.90;;
16506;SDS011;8366;51.020;7.642;2023-11-19T01:25:32;2.70;;;0.80;;
16506;SDS011;8366;51.020;7.642;2023-11-19T01:28:02;0.77;;;0.70;;
16506;SDS011;8366;51.020;7.642;2023-11-19T01:30:29;1.27;;;0.70;;
16506;SDS011;8366;51.020;7.642;2023-11-19T01:32:56;0.90;;;0.70;;
16506;SDS011;8366;51.020;7.642;2023-11-19T01:35:23;1.87;;;0.80;;
16506;SDS011;8366;51.020;7.642;2023-11-19T01:37:49;0.73;;;0.73;;
16506;SDS011;8366;51.020;7.642;2023-11-19T01:40:19;1.43;;;0.70;;
16506;SDS011;8366;51.020;7.642;2023-11-19T01:42:46;1.13;;;0.80;;
16506;SDS011;8366;51.020;7.642;2023-11-19T01:45:19;0.93;;;0.70;;
16506;SDS011;8366;51.020;7.642;2023-11-19T01:47:49;2.07;;;0.80;;
16506;SDS011;8366;51.020;7.642;2023-11-19T01:50:16;2.23;;;0.70;;
16506;SDS011;8366;51.020;7.642;2023-11-19T01:52:44;0.70;;;0.57;;
16506;SDS011;8366;51.020;7.642;2023-11-19T01:55:11;1.23;;;0.60;;
16506;SDS011;8366;51.020;7.642;2023-11-19T01:57:38;1.50;;;0.90;;
16506;SDS011;8366;51.020;7.642;2023-11-19T02:00:06;0.70;;;0.70;;
16506;SDS011;8366;51.020;7.642;2023-11-19T02:02:37;0.63;;;0.50;;
16506;SDS011;8366;51.020;7.642;2023-11-19T02:05:05;0.60;;;0.60;;
16506;SDS011;8366;51.020;7.642;2023-11-19T02:07:32;0.70;;;0.50;;
16506;SDS011;8366;51.020;7.642;2023-11-19T02:09:58;0.63;;;0.63;;
16506;SDS011;8366;51.020;7.642;2023-11-19T02:12:27;1.00;;;0.70;;
16506;SDS011;8366;51.020;7.642;2023-11-19T02:14:54;0.73;;;0.70;;
16506;SDS011;8366;51.020;7.642;2023-11-19T02:17:27;0.77;;;0.60;;
16506;SDS011;8366;51.020;7.642;2023-11-19T02:19:57;1.00;;;0.77;;
16506;SDS011;8366;51.020;7.642;2023-11-19T02:22:24;1.90;;;0.70;;
16506;SDS011;8366;51.020;7.642;2023-11-19T02:24:51;0.60;;;0.53;;
16506;SDS011;8366;51.020;7.642;2023-11-19T02:27:24;0.70;;;0.70;;
16506;SDS011;8366;51.020;7.642;2023-11-19T02:29:54;0.90;;;0.53;;
16506;SDS011;8366;51.020;7.642;2023-11-19T02:32:20;0.80;;;0.70;;
16506;SDS011;8366;51.020;7.642;2023-11-19T02:34:47;1.13;;;0.70;;
16506;SDS011;8366;51.020;7.642;2023-11-19T02:37:13;0.87;;;0.70;;
16506;SDS011;8366;51.020;7.642;2023-11-19T02:39:40;0.77;;;0.73;;
16506;SDS011;8366;51.020;7.642;2023-11-19T02:42:07;1.53;;;0.80;;
16506;SDS011;8366;51.020;7.642;2023-11-19T02:44:34;0.80;;;0.70;;
16506;SDS011;8366;51.020;7.642;2023-11-19T02:47:02;1.93;;;0.70;;
16506;SDS011;8366;51.020;7.642;2023-11-19T02:49:28;2.10;;;0.77;;
16506;SDS011;8366;51.020;7.642;2023-11-19T02:51:55;2.47;;;0.90;;
16506;SDS011;8366;51.020;7.642;2023-11-19T02:54:22;0.80;;;0.70;;
16506;SDS011;8366;51.020;7.642;2023-11-19T02:56:52;1.00;;;0.80;;
16506;SDS011;8366;51.020;7.642;2023-11-19T02:59:24;1.40;;;1.10;;
16506;SDS011;8366;51.020;7.642;2023-11-19T03:01:53;1.30;;;0.97;;
16506;SDS011;8366;51.020;7.642;2023-11-19T03:04:21;0.80;;;0.80;;
16506;SDS011;8366;51.020;7.642;2023-11-19T03:06:48;2.20;;;0.90;;
16506;SDS011;8366;51.020;7.642;2023-11-19T03:09:15;1.53;;;0.80;;
16506;SDS011;8366;51.020;7.642;2023-11-19T03:11:41;3.33;;;1.20;;
16506;SDS011;8366;51.020;7.642;2023-11-19T03:14:08;1.97;;;1.10;;
16506;SDS011;8366;51.020;7.642;2023-11-19T03:16:34;2.93;;;0.90;;
16506;SDS011;8366;51.020;7.642;2023-11-19T03:19:01;1.93;;;1.03;;
16506;SDS011;8366;51.020;7.642;2023-11-19T03:21:30;1.50;;;0.97;;
16506;SDS011;8366;51.020;7.642;2023-11-19T03:23:58;1.43;;;0.90;;
16506;SDS011;8366;51.020;7.642;2023-11-19T03:26:25;3.60;;;1.20;;
16506;SDS011;8366;51.020;7.642;2023-11-19T03:28:52;1.03;;;0.80;;
16506;SDS011;8366;51.020;7.642;2023-11-19T03:31:19;4.73;;;2.17;;
16506;SDS011;8366;51.020;7.642;2023-11-19T03:33:46;3.50;;;1.50;;
16506;SDS011;8366;51.020;7.642;2023-11-19T03:36:12;2.53;;;0.87;;
16506;SDS011;8366;51.020;7.642;2023-11-19T03:38:40;2.07;;;0.90;;
16506;SDS011;8366;51.020;7.642;2023-11-19T03:41:10;2.53;;;1.00;;
16506;SDS011;8366;51.020;7.642;2023-11-19T03:43:37;4.47;;;1.00;;
16506;SDS011;8366;51.020;7.642;2023-11-19T03:46:04;1.50;;;0.70;;
16506;SDS011;8366;51.020;7.642;2023-11-19T03:48:31;1.80;;;0.90;;
16506;SDS011;8366;51.020;7.642;2023-11-19T03:50:58;1.03;;;0.73;;
16506;SDS011;8366;51.020;7.642;2023-11-19T03:53:24;4.80;;;0.90;;
16506;SDS011;8366;51.020;7.642;2023-11-19T03:55:52;3.63;;;0.80;;
16506;SDS011;8366;51.020;7.642;2023-11-19T03:58:18;2.53;;;0.93;;
16506;SDS011;8366;51.020;7.642;2023-11-19T04:00:45;4.17;;;0.93;;
16506;SDS011;8366;51.020;7.642;2023-11-19T04:03:11;2.27;;;0.93;;
16506;SDS011;8366;51.020;7.642;2023-11-19T04:05:38;3.80;;;0.93;;
16506;SDS011;8366;51.020;7.642;2023-11-19T04:08:04;1.97;;;1.00;;
16506;SDS011;8366;51.020;7.642;2023-11-19T04:10:31;2.27;;;0.90;;
16506;SDS011;8366;51.020;7.642;2023-11-19T04:12:58;3.80;;;0.93;;
16506;SDS011;8366;51.020;7.642;2023-11-19T04:15:25;4.20;;;1.10;;
16506;SDS011;8366;51.020;7.642;2023-11-19T04:17:51;3.00;;;1.13;;
16506;SDS011;8366;51.020;7.642;2023-11-19T04:20:18;5.90;;;1.10;;
16506;SDS011;8366;51.020;7.642;2023-11-19T04:22:44;3.20;;;1.07;;
16506;SDS011;8366;51.020;7.642;2023-11-19T04:25:11;5.17;;;1.30;;
16506;SDS011;8366;51.020;7.642;2023-11-19T04:27:37;4.43;;;1.43;;
16506;SDS011;8366;51.020;7.642;2023-11-19T04:30:06;4.87;;;1.40;;
16506;SDS011;8366;51.020;7.642;2023-11-19T04:32:35;3.67;;;1.20;;
16506;SDS011;8366;51.020;7.642;2023-11-19T04:35:02;2.63;;;1.10;;
16506;SDS011;8366;51.020;7.642;2023-11-19T04:37:29;3.73;;;1.10;;
16506;SDS011;8366;51.020;7.642;2023-11-19T04:39:55;4.03;;;1.30;;
16506;SDS011;8366;51.020;7.642;2023-11-19T04:42:22;2.27;;;1.47;;
16506;SDS011;8366;51.020;7.642;2023-11-19T04:44:49;6.23;;;1.33;;
16506;SDS011;8366;51.020;7.642;2023-11-19T04:47:17;6.93;;;1.40;;
16506;SDS011;8366;51.020;7.642;2023-11-19T04:49:43;7.37;;;1.40;;
16506;SDS011;8366;51.020;7.642;2023-11-19T04:52:10;7.67;;;1.80;;
16506;SDS011;8366;51.020;7.642;2023-11-19T04:54:40;6.53;;;1.50;;
16506;SDS011;8366;51.020;7.642;2023-11-19T04:57:07;3.57;;;1.50;;
16506;SDS011;8366;51.020;7.642;2023-11-19T04:59:34;4.93;;;1.60;;
16506;SDS011;8366;51.020;7.642;2023-11-19T05:02:01;5.17;;;1.90;;
16506;SDS011;8366;51.020;7.642;2023-11-19T05:04:30;6.63;;;1.57;;
16506;SDS011;8366;51.020;7.642;2023-11-19T05:06:57;6.13;;;1.60;;
16506;SDS011;8366;51.020;7.642;2023-11-19T05:09:23;7.83;;;1.93;;
16506;SDS011;8366;51.020;7.642;2023-11-19T05:11:50;7.37;;;2.40;;
16506;SDS011;8366;51.020;7.642;2023-11-19T05:14:16;8.37;;;2.40;;
16506;SDS011;8366;51.020;7.642;2023-11-19T05:16:43;8.73;;;1.77;;
16506;SDS011;8366;51.020;7.642;2023-11-19T05:19:10;8.10;;;1.93;;
16506;SDS011;8366;51.020;7.642;2023-11-19T05:21:38;8.07;;;2.10;;
16506;SDS011;8366;51.020;7.642;2023-11-19T05:24:04;11.73;;;2.13;;
16506;SDS011;8366;51.020;7.642;2023-11-19T05:26:31;8.30;;;1.97;;
16506;SDS011;8366;51.020;7.642;2023-11-19T05:28:58;10.57;;;2.00;;
16506;SDS011;8366;51.020;7.642;2023-11-19T05:31:25;7.43;;;2.20;;
16506;SDS011;8366;51.020;7.642;2023-11-19T05:33:52;9.97;;;2.00;;
16506;SDS011;8366;51.020;7.642;2023-11-19T05:36:18;11.50;;;2.70;;
16506;SDS011;8366;51.020;7.642;2023-11-19T05:38:46;8.03;;;2.30;;
16506;SDS011;8366;51.020;7.642;2023-11-19T05:41:12;9.90;;;2.40;;
16506;SDS011;8366;51.020;7.642;2023-11-19T05:43:39;8.53;;;2.30;;
16506;SDS011;8366;51.020;7.642;2023-11-19T05:46:06;8.93;;;2.10;;
16506;SDS011;8366;51.020;7.642;2023-11-19T05:48:33;7.00;;;2.17;;
16506;SDS011;8366;51.020;7.642;2023-11-19T05:51:00;10.93;;;2.10;;
16506;SDS011;8366;51.020;7.642;2023-11-19T05:53:28;7.37;;;2.37;;
16506;SDS011;8366;51.020;7.642;2023-11-19T05:55:55;9.27;;;1.83;;
16506;SDS011;8366;51.020;7.642;2023-11-19T05:58:23;9.50;;;2.10;;
16506;SDS011;8366;51.020;7.642;2023-11-19T06:00:51;8.27;;;2.13;;
16506;SDS011;8366;51.020;7.642;2023-11-19T06:03:18;8.43;;;2.10;;
16506;SDS011;8366;51.020;7.642;2023-11-19T06:05:46;8.67;;;2.67;;
16506;SDS011;8366;51.020;7.642;2023-11-19T06:08:13;12.87;;;2.40;;
16506;SDS011;8366;51.020;7.642;2023-11-19T06:10:39;13.50;;;2.93;;
16506;SDS011;8366;51.020;7.642;2023-11-19T06:13:07;13.53;;;2.97;;
16506;SDS011;8366;51.020;7.642;2023-11-19T06:15:35;15.03;;;2.70;;
16506;SDS011;8366;51.020;7.642;2023-11-19T06:18:02;10.30;;;2.30;;
16506;SDS011;8366;51.020;7.642;2023-11-19T06:20:29;12.67;;;2.70;;
16506;SDS011;8366;51.020;7.642;2023-11-19T06:22:56;9.33;;;2.63;;
16506;SDS011;8366;51.020;7.642;2023-11-19T06:25:23;12.30;;;2.57;;
16506;SDS011;8366;51.020;7.642;2023-11-19T06:27:51;15.17;;;2.83;;
16506;SDS011;8366;51.020;7.642;2023-11-19T06:30:19;9.00;;;2.20;;
16506;SDS011;8366;51.020;7.642;2023-11-19T06:32:46;12.80;;;2.63;;
16506;SDS011;8366;51.020;7.642;2023-11-19T06:35:12;15.03;;;2.67;;
16506;SDS011;8366;51.020;7.642;2023-11-19T06:37:39;13.43;;;3.00;;
16506;SDS011;8366;51.020;7.642;2023-11-19T06:40:07;15.27;;;2.90;;
16506;SDS011;8366;51.020;7.642;2023-11-19T06:42:34;14.43;;;3.03;;
16506;SDS011;8366;51.020;7.642;2023-11-19T06:45:01;11.57;;;2.80;;
16506;SDS011;8366;51.020;7.642;2023-11-19T06:47:29;11.57;;;2.77;;
16506;SDS011;8366;51.020;7.642;2023-11-19T06:49:56;10.73;;;3.20;;
16506;SDS011;8366;51.020;7.642;2023-11-19T06:52:22;13.03;;;3.03;;
16506;SDS011;8366;51.020;7.642;2023-11-19T06:54:49;15.30;;;3.17;;
16506;SDS011;8366;51.020;7.642;2023-11-19T06:57:15;11.93;;;2.70;;
16506;SDS011;8366;51.020;7.642;2023-11-19T06:59:42;17.67;;;2.90;;
16506;SDS011;8366;51.020;7.642;2023-11-19T07:02:09;12.00;;;2.70;;
16506;SDS011;8366;51.020;7.642;2023-11-19T07:04:37;16.20;;;3.13;;
16506;SDS011;8366;51.020;7.642;2023-11-19T07:07:03;13.93;;;3.03;;
16506;SDS011;8366;51.020;7.642;2023-11-19T07:09:30;18.70;;;3.50;;
16506;SDS011;8366;51.020;7.642;2023-11-19T07:11:57;19.10;;;3.27;;
16506;SDS011;8366;51.020;7.642;2023-11-19T07:14:25;12.80;;;2.73;;
16506;SDS011;8366;51.020;7.642;2023-11-19T07:16:51;16.90;;;3.63;;
16506;SDS011;8366;51.020;7.642;2023-11-19T07:19:18;16.60;;;2.88;;
16506;SDS011;8366;51.020;7.642;2023-11-19T07:21:46;17.23;;;2.60;;
16506;SDS011;8366;51.020;7.642;2023-11-19T07:24:13;14.23;;;2.57;;
16506;SDS011;8366;51.020;7.642;2023-11-19T07:26:41;16.07;;;3.37;;
16506;SDS011;8366;51.020;7.642;2023-11-19T07:29:08;15.13;;;3.33;;
16506;SDS011;8366;51.020;7.642;2023-11-19T07:31:35;15.67;;;3.23;;
16506;SDS011;8366;51.020;7.642;2023-11-19T07:34:02;17.23;;;3.00;;
16506;SDS011;8366;51.020;7.642;2023-11-19T07:36:28;13.30;;;2.50;;
16506;SDS011;8366;51.020;7.642;2023-11-19T07:38:57;18.80;;;3.50;;
16506;SDS011;8366;51.020;7.642;2023-11-19T07:41:24;13.23;;;2.63;;
16506;SDS011;8366;51.020;7.642;2023-11-19T07:43:51;18.93;;;3.60;;
16506;SDS011;8366;51.020;7.642;2023-11-19T07:46:18;18.77;;;3.17;;
16506;SDS011;8366;51.020;7.642;2023-11-19T07:48:45;12.67;;;2.70;;
16506;SDS011;8366;51.020;7.642;2023-11-19T07:51:13;12.50;;;3.57;;
16506;SDS011;8366;51.020;7.642;2023-11-19T07:53:39;15.83;;;3.20;;
16506;SDS011;8366;51.020;7.642;2023-11-19T07:56:08;13.80;;;2.80;;
16506;SDS011;8366;51.020;7.642;2023-11-19T07:58:36;16.20;;;3.30;;
16506;SDS011;8366;51.020;7.642;2023-11-19T08:01:02;18.53;;;3.20;;
16506;SDS011;8366;51.020;7.642;2023-11-19T08:03:29;17.70;;;3.50;;
16506;SDS011;8366;51.020;7.642;2023-11-19T08:05:56;16.80;;;3.30;;
16506;SDS011;8366;51.020;7.642;2023-11-19T08:08:23;12.60;;;3.23;;
16506;SDS011;8366;51.020;7.642;2023-11-19T08:10:49;15.00;;;3.00;;
16506;SDS011;8366;51.020;7.642;2023-11-19T08:13:17;14.57;;;3.27;;
16506;SDS011;8366;51.020;7.642;2023-11-19T08:15:44;16.33;;;3.60;;
16506;SDS011;8366;51.020;7.642;2023-11-19T08:18:12;16.30;;;3.07;;
16506;SDS011;8366;51.020;7.642;2023-11-19T08:20:38;12.33;;;2.70;;
16506;SDS011;8366;51.020;7.642;2023-11-19T08:23:06;14.53;;;2.73;;
16506;SDS011;8366;51.020;7.642;2023-11-19T08:25:33;13.60;;;3.10;;
16506;SDS011;8366;51.020;7.642;2023-11-19T08:28:00;14.03;;;3.00;;
16506;SDS011;8366;51.020;7.642;2023-11-19T08:30:29;15.27;;;3.07;;
16506;SDS011;8366;51.020;7.642;2023-11-19T08:32:56;12.60;;;2.87;;
16506;SDS011;8366;51.020;7.642;2023-11-19T08:35:23;15.00;;;3.63;;
16506;SDS011;8366;51.020;7.642;2023-11-19T08:37:50;13.27;;;2.97;;
16506;SDS011;8366;51.020;7.642;2023-11-19T08:40:17;15.43;;;3.03;;
16506;SDS011;8366;51.020;7.642;2023-11-19T08:42:44;15.07;;;3.20;;
16506;SDS011;8366;51.020;7.642;2023-11-19T08:45:11;15.20;;;3.63;;
16506;SDS011;8366;51.020;7.642;2023-11-19T08:47:39;15.03;;;3.20;;
16506;SDS011;8366;51.020;7.642;2023-11-19T08:50:06;21.77;;;3.43;;
16506;SDS011;8366;51.020;7.642;2023-11-19T08:52:33;19.80;;;3.47;;
16506;SDS011;8366;51.020;7.642;2023-11-19T08:55:00;16.27;;;3.73;;
16506;SDS011;8366;51.020;7.642;2023-11-19T08:57:26;15.40;;;2.90;;
16506;SDS011;8366;51.020;7.642;2023-11-19T08:59:53;15.77;;;3.60;;
16506;SDS011;8366;51.020;7.642;2023-11-19T09:02:20;24.13;;;4.33;;
16506;SDS011;8366;51.020;7.642;2023-11-19T09:04:48;17.80;;;3.63;;
16506;SDS011;8366;51.020;7.642;2023-11-19T09:07:14;16.60;;;3.63;;
16506;SDS011;8366;51.020;7.642;2023-11-19T09:09:41;19.90;;;3.60;;
16506;SDS011;8366;51.020;7.642;2023-11-19T09:12:08;15.43;;;4.53;;
16506;SDS011;8366;51.020;7.642;2023-11-19T09:14:35;18.33;;;4.00;;
16506;SDS011;8366;51.020;7.642;2023-11-19T09:17:03;15.03;;;3.17;;
16506;SDS011;8366;51.020;7.642;2023-11-19T09:19:32;15.67;;;3.20;;
16506;SDS011;8366;51.020;7.642;2023-11-19T09:22:03;15.87;;;3.00;;
16506;SDS011;8366;51.020;7.642;2023-11-19T09:24:30;17.20;;;2.90;;
16506;SDS011;8366;51.020;7.642;2023-11-19T09:26:57;18.53;;;3.57;;
16506;SDS011;8366;51.020;7.642;2023-11-19T09:29:23;12.73;;;2.57;;
16506;SDS011;8366;51.020;7.642;2023-11-19T09:31:50;21.00;;;3.20;;
16506;SDS011;8366;51.020;7.642;2023-11-19T09:34:16;12.00;;;2.47;;
16506;SDS011;8366;51.020;7.642;2023-11-19T09:36:43;14.53;;;3.53;;
16506;SDS011;8366;51.020;7.642;2023-11-19T09:39:11;14.03;;;3.40;;
16506;SDS011;8366;51.020;7.642;2023-11-19T09:41:40;13.60;;;3.90;;
16506;SDS011;8366;51.020;7.642;2023-11-19T09:44:07;17.10;;;3.40;;
16506;SDS011;8366;51.020;7.642;2023-11-19T09:46:34;15.77;;;2.90;;
16506;SDS011;8366;51.020;7.642;2023-11-19T09:49:02;16.07;;;3.47;;
16506;SDS011;8366;51.020;7.642;2023-11-19T09:51:29;18.60;;;3.53;;
16506;SDS011;8366;51.020;7.642;2023-11-19T09:53:56;15.77;;;3.23;;
16506;SDS011;8366;51.020;7.642;2023-11-19T09:56:24;19.73;;;3.77;;
16506;SDS011;8366;51.020;7.642;2023-11-19T09:58:51;13.67;;;3.53;;
16506;SDS011;8366;51.020;7.642;2023-11-19T10:01:18;19.87;;;3.67;;
16506;SDS011;8366;51.020;7.642;2023-11-19T10:03:45;20.50;;;3.60;;
16506;SDS011;8366;51.020;7.642;2023-11-19T10:06:13;18.10;;;3.13;;
16506;SDS011;8366;51.020;7.642;2023-11-19T10:08:41;15.83;;;3.30;;
16506;SDS011;8366;51.020;7.642;2023-11-19T10:11:08;20.43;;;3.23;;
16506;SDS011;8366;51.020;7.642;2023-11-19T10:13:38;14.07;;;3.50;;
16506;SDS011;8366;51.020;7.642;2023-11-19T10:16:04;19.53;;;3.73;;
16506;SDS011;8366;51.020;7.642;2023-11-19T10:18:34;20.80;;;3.73;;
16506;SDS011;8366;51.020;7.642;2023-11-19T10:21:03;15.83;;;3.27;;
16506;SDS011;8366;51.020;7.642;2023-11-19T10:23:31;9.57;;;2.20;;
16506;SDS011;8366;51.020;7.642;2023-11-19T10:26:02;16.17;;;3.30;;
16506;SDS011;8366;51.020;7.642;2023-11-19T10:28:34;14.17;;;3.33;;
16506;SDS011;8366;51.020;7.642;2023-11-19T10:31:08;20.13;;;3.77;;
16506;SDS011;8366;51.020;7.642;2023-11-19T10:33:34;18.03;;;4.73;;
16506;SDS011;8366;51.020;7.642;2023-11-19T10:36:01;18.85;;;3.42;;
16506;SDS011;8366;51.020;7.642;2023-11-19T10:38:27;16.20;;;3.93;;
16506;SDS011;8366;51.020;7.642;2023-11-19T10:40:55;16.50;;;2.77;;
16506;SDS011;8366;51.020;7.642;2023-11-19T10:43:22;16.37;;;2.70;;
16506;SDS011;8366;51.020;7.642;2023-11-19T10:45:51;15.73;;;3.20;;
16506;SDS011;8366;51.020;7.642;2023-11-19T10:48:18;19.47;;;3.13;;
16506;SDS011;8366;51.020;7.642;2023-11-19T10:50:45;13.37;;;2.73;;
16506;SDS011;8366;51.020;7.642;2023-11-19T10:53:12;22.23;;;3.73;;
16506;SDS011;8366;51.020;7.642;2023-11-19T10:55:39;15.98;;;3.00;;
16506;SDS011;8366;51.020;7.642;2023-11-19T10:58:08;14.67;;;2.67;;
16506;SDS011;8366;51.020;7.642;2023-11-19T11:00:37;17.07;;;3.70;;
16506;SDS011;8366;51.020;7.642;2023-11-19T11:03:08;16.40;;;3.70;;
16506;SDS011;8366;51.020;7.642;2023-11-19T11:05:37;15.55;;;2.90;;
16506;SDS011;8366;51.020;7.642;2023-11-19T11:08:04;18.67;;;4.97;;
16506;SDS011;8366;51.020;7.642;2023-11-19T11:10:34;14.73;;;3.08;;
16506;SDS011;8366;51.020;7.642;2023-11-19T11:13:03;15.80;;;3.63;;
16506;SDS011;8366;51.020;7.642;2023-11-19T11:15:30;18.00;;;3.65;;
16506;SDS011;8366;51.020;7.642;2023-11-19T11:17:59;19.42;;;3.42;;
16506;SDS011;8366;51.020;7.642;2023-11-19T11:20:31;16.33;;;3.42;;
16506;SDS011;8366;51.020;7.642;2023-11-19T11:23:25;17.23;;;3.28;;
16506;SDS011;8366;51.020;7.642;2023-11-19T11:26:18;10.37;;;2.40;;
16506;SDS011;8366;51.020;7.642;2023-11-19T11:28:56;17.15;;;3.38;;
16506;SDS011;8366;51.020;7.642;2023-11-19T11:31:29;17.40;;;2.90;;
16506;SDS011;8366;51.020;7.642;2023-11-19T11:34:07;28.37;;;3.57;;
16506;SDS011;8366;51.020;7.642;2023-11-19T11:37:01;15.55;;;3.72;;
16506;SDS011;8366;51.020;7.642;2023-11-19T11:39:32;17.05;;;3.05;;
16506;SDS011;8366;51.020;7.642;2023-11-19T11:45:02;15.77;;;3.40;;
16506;SDS011;8366;51.020;7.642;2023-11-19T11:50:50;13.25;;;2.72;;
16506;SDS011;8366;51.020;7.642;2023-11-19T11:53:20;15.60;;;3.47;;
16506;SDS011;8366;51.020;7.642;2023-11-19T11:55:55;15.52;;;3.28;;
16506;SDS011;8366;51.020;7.642;2023-11-19T11:58:28;15.60;;;3.30;;
16506;SDS011;8366;51.020;7.642;2023-11-19T12:00:59;14.20;;;2.80;;
16506;SDS011;8366;51.020;7.642;2023-11-19T12:03:28;14.10;;;3.15;;
16506;SDS011;8366;51.020;7.642;2023-11-19T12:05:55;13.67;;;3.33;;
16506;SDS011;8366;51.020;7.642;2023-11-19T12:08:26;11.47;;;2.80;;
16506;SDS011;8366;51.020;7.642;2023-11-19T12:10:54;12.70;;;2.50;;
16506;SDS011;8366;51.020;7.642;2023-11-19T12:13:23;11.73;;;2.67;;
16506;SDS011;8366;51.020;7.642;2023-11-19T12:16:08;15.07;;;3.37;;
16506;SDS011;8366;51.020;7.642;2023-11-19T12:18:34;13.13;;;2.93;;
16506;SDS011;8366;51.020;7.642;2023-11-19T12:21:01;19.80;;;3.13;;
16506;SDS011;8366;51.020;7.642;2023-11-19T12:23:32;15.07;;;2.93;;
16506;SDS011;8366;51.020;7.642;2023-11-19T12:25:59;13.47;;;3.20;;
16506;SDS011;8366;51.020;7.642;2023-11-19T12:28:26;15.43;;;3.30;;
16506;SDS011;8366;51.020;7.642;2023-11-19T12:31:07;20.07;;;3.27;;
16506;SDS011;8366;51.020;7.642;2023-11-19T12:33:36;15.40;;;3.57;;
16506;SDS011;8366;51.020;7.642;2023-11-19T12:36:11;14.15;;;3.05;;
16506;SDS011;8366;51.020;7.642;2023-11-19T12:38:40;12.57;;;3.17;;
16506;SDS011;8366;51.020;7.642;2023-11-19T12:41:10;11.03;;;2.63;;
16506;SDS011;8366;51.020;7.642;2023-11-19T12:43:42;17.37;;;2.97;;
16506;SDS011;8366;51.020;7.642;2023-11-19T12:46:19;16.10;;;3.10;;
16506;SDS011;8366;51.020;7.642;2023-11-19T12:48:46;13.43;;;2.67;;
16506;SDS011;8366;51.020;7.642;2023-11-19T12:51:13;15.03;;;2.87;;
16506;SDS011;8366;51.020;7.642;2023-11-19T12:53:50;15.67;;;3.00;;
16506;SDS011;8366;51.020;7.642;2023-11-19T12:56:19;12.40;;;2.80;;
16506;SDS011;8366;51.020;7.642;2023-11-19T12:58:46;11.20;;;2.80;;
16506;SDS011;8366;51.020;7.642;2023-11-19T13:01:15;11.45;;;2.65;;
16506;SDS011;8366;51.020;7.642;2023-11-19T13:03:42;15.57;;;2.90;;
16506;SDS011;8366;51.020;7.642;2023-11-19T13:06:09;12.50;;;2.63;;
16506;SDS011;8366;51.020;7.642;2023-11-19T13:08:37;11.20;;;2.83;;
16506;SDS011;8366;51.020;7.642;2023-11-19T13:11:07;9.67;;;2.10;;
16506;SDS011;8366;51.020;7.642;2023-11-19T13:13:54;12.47;;;2.57;;
16506;SDS011;8366;51.020;7.642;2023-11-19T13:16:21;15.50;;;3.20;;
16506;SDS011;8366;51.020;7.642;2023-11-19T13:18:48;11.97;;;2.30;;
16506;SDS011;8366;51.020;7.642;2023-11-19T13:21:14;13.13;;;3.00;;
16506;SDS011;8366;51.020;7.642;2023-11-19T13:23:41;13.23;;;2.77;;
16506;SDS011;8366;51.020;7.642;2023-11-19T13:26:10;18.57;;;3.30;;
16506;SDS011;8366;51.020;7.642;2023-11-19T13:28:36;8.30;;;2.60;;
16506;SDS011;8366;51.020;7.642;2023-11-19T13:31:04;12.27;;;3.53;;
16506;SDS011;8366;51.020;7.642;2023-11-19T13:33:31;13.60;;;2.70;;
16506;SDS011;8366;51.020;7.642;2023-11-19T13:35:58;11.37;;;2.67;;
16506;SDS011;8366;51.020;7.642;2023-11-19T13:38:26;12.30;;;2.73;;
16506;SDS011;8366;51.020;7.642;2023-11-19T13:40:53;12.90;;;3.37;;
16506;SDS011;8366;51.020;7.642;2023-11-19T13:43:21;11.53;;;3.03;;
16506;SDS011;8366;51.020;7.642;2023-11-19T13:45:48;14.40;;;2.77;;
16506;SDS011;8366;51.020;7.642;2023-11-19T13:48:16;10.37;;;2.53;;
16506;SDS011;8366;51.020;7.642;2023-11-19T13:50:43;13.83;;;2.73;;
16506;SDS011;8366;51.020;7.642;2023-11-19T13:53:10;12.00;;;2.60;;
16506;SDS011;8366;51.020;7.642;2023-11-19T13:55:37;12.87;;;3.00;;
16506;SDS011;8366;51.020;7.642;2023-11-19T13:58:04;12.43;;;2.50;;
16506;SDS011;8366;51.020;7.642;2023-11-19T14:00:32;13.57;;;2.40;;
16506;SDS011;8366;51.020;7.642;2023-11-19T14:02:59;14.93;;;2.77;;
16506;SDS011;8366;51.020;7.642;2023-11-19T14:05:25;10.60;;;3.30;;
16506;SDS011;8366;51.020;7.642;2023-11-19T14:07:52;10.33;;;2.30;;
16506;SDS011;8366;51.020;7.642;2023-11-19T14:10:21;15.13;;;3.30;;
16506;SDS011;8366;51.020;7.642;2023-11-19T14:12:48;10.83;;;2.53;;
16506;SDS011;8366;51.020;7.642;2023-11-19T14:15:16;11.03;;;2.73;;
16506;SDS011;8366;51.020;7.642;2023-11-19T14:17:44;13.57;;;3.17;;
16506;SDS011;8366;51.020;7.642;2023-11-19T14:20:10;11.53;;;2.80;;
16506;SDS011;8366;51.020;7.642;2023-11-19T14:22:39;13.23;;;3.23;;
16506;SDS011;8366;51.020;7.642;2023-11-19T14:25:06;17.43;;;2.77;;
16506;SDS011;8366;51.020;7.642;2023-11-19T14:27:35;12.93;;;2.83;;
16506;SDS011;8366;51.020;7.642;2023-11-19T14:30:02;11.77;;;2.90;;
16506;SDS011;8366;51.020;7.642;2023-11-19T14:32:30;9.80;;;2.80;;
16506;SDS011;8366;51.020;7.642;2023-11-19T14:34:58;11.13;;;3.30;;
16506;SDS011;8366;51.020;7.642;2023-11-19T14:37:25;15.13;;;2.47;;
16506;SDS011;8366;51.020;7.642;2023-11-19T14:39:52;11.07;;;2.47;;
16506;SDS011;8366;51.020;7.642;2023-11-19T14:42:19;14.10;;;2.97;;
16506;SDS011;8366;51.020;7.642;2023-11-19T14:44:45;14.97;;;3.57;;
16506;SDS011;8366;51.020;7.642;2023-11-19T14:47:12;15.53;;;2.90;;
16506;SDS011;8366;51.020;7.642;2023-11-19T14:49:38;15.93;;;2.93;;
16506;SDS011;8366;51.020;7.642;2023-11-19T14:52:07;16.67;;;2.97;;
16506;SDS011;8366;51.020;7.642;2023-11-19T14:54:33;16.10;;;3.97;;
16506;SDS011;8366;51.020;7.642;2023-11-19T14:57:00;17.57;;;2.87;;
16506;SDS011;8366;51.020;7.642;2023-11-19T14:59:28;13.67;;;2.97;;
16506;SDS011;8366;51.020;7.642;2023-11-19T15:01:54;10.80;;;2.90;;
16506;SDS011;8366;51.020;7.642;2023-11-19T15:04:22;13.20;;;2.87;;